createdAt,value
2019-06-01T00:02:02.150Z,99.90
2019-06-01T00:04:30.949Z,99.90
2019-06-01T00:06:59.781Z,99.90
2019-06-01T00:09:28.605Z,99.90
2019-06-01T00:11:57.477Z,99.90
2019-06-01T00:14:26.271Z,99.90
2019-06-01T00:16:55.060Z,99.90
2019-06-01T00:19:23.855Z,99.90
2019-06-01T00:21:52.648Z,99.90
2019-06-01T00:24:21.756Z,99.90
2019-06-01T00:26:51.985Z,99.90
2019-06-01T00:29:20.911Z,99.90
2019-06-01T00:31:49.958Z,99.90
2019-06-01T00:34:19.296Z,99.90
2019-06-01T00:36:48.229Z,99.90
2019-06-01T00:39:17.035Z,99.90
2019-06-01T00:41:46.002Z,99.90
2019-06-01T00:44:14.920Z,99.90
2019-06-01T00:46:44.485Z,99.90
2019-06-01T00:49:14.028Z,99.90
2019-06-01T00:51:42.918Z,99.90
2019-06-01T00:54:11.795Z,99.90
2019-06-01T00:56:40.610Z,99.90
2019-06-01T00:59:09.761Z,99.90
2019-06-01T01:01:38.624Z,99.90
2019-06-01T01:04:07.428Z,99.90
2019-06-01T01:06:36.245Z,99.90
2019-06-01T01:09:08.368Z,99.90
2019-06-01T01:11:37.260Z,99.90
2019-06-01T01:14:06.508Z,99.90
2019-06-01T01:16:35.428Z,99.90
2019-06-01T01:19:04.704Z,99.90
2019-06-01T01:21:33.656Z,99.90
2019-06-01T01:24:02.532Z,99.90
2019-06-01T01:26:31.665Z,99.90
2019-06-01T01:29:00.481Z,99.90
2019-06-01T01:31:29.335Z,99.90
2019-06-01T01:33:58.148Z,99.90
2019-06-01T01:36:27.025Z,99.90
2019-06-01T01:38:56.275Z,99.90
2019-06-01T01:41:25.396Z,99.90
2019-06-01T01:43:54.611Z,99.90
2019-06-01T01:46:23.569Z,99.90
2019-06-01T01:48:54.058Z,99.90
2019-06-01T01:51:23.160Z,99.90
2019-06-01T01:53:52.989Z,99.90
2019-06-01T01:56:22.180Z,99.90
2019-06-01T01:58:52.308Z,99.90
2019-06-01T02:01:22.997Z,99.90
2019-06-01T02:03:53.543Z,99.90
2019-06-01T02:06:22.584Z,99.90
2019-06-01T02:08:51.409Z,99.90
2019-06-01T02:11:20.518Z,99.90
2019-06-01T02:13:49.302Z,99.90
2019-06-01T02:16:18.080Z,99.90
2019-06-01T02:18:47.183Z,99.90
2019-06-01T02:21:15.978Z,99.90
2019-06-01T02:23:45.378Z,99.90
2019-06-01T02:26:14.781Z,99.90
2019-06-01T02:28:43.648Z,99.90
2019-06-01T02:31:12.444Z,99.90
2019-06-01T02:33:41.238Z,99.90
2019-06-01T02:36:10.034Z,99.90
2019-06-01T02:38:39.572Z,99.90
2019-06-01T02:41:08.459Z,99.90
2019-06-01T02:43:37.947Z,99.90
2019-06-01T02:46:07.482Z,99.90
2019-06-01T02:48:36.786Z,99.90
2019-06-01T02:51:05.610Z,99.90
2019-06-01T02:53:34.529Z,99.90
2019-06-01T02:56:04.288Z,99.90
2019-06-01T02:58:33.209Z,99.90
2019-06-01T03:01:33.133Z,99.90
2019-06-01T03:04:05.370Z,99.90
2019-06-01T03:06:36.228Z,99.90
2019-06-01T03:09:08.977Z,99.90
2019-06-01T03:11:39.705Z,99.90
2019-06-01T03:14:10.553Z,99.90
2019-06-01T03:16:40.690Z,99.90
2019-06-01T03:19:10.096Z,99.90
2019-06-01T03:21:38.969Z,99.90
2019-06-01T03:24:13.242Z,99.90
2019-06-01T03:26:44.532Z,99.90
2019-06-01T03:29:20.957Z,99.90
2019-06-01T03:31:50.113Z,99.90
2019-06-01T03:34:19.441Z,99.90
2019-06-01T03:36:48.479Z,99.90
2019-06-01T03:39:17.608Z,99.90
2019-06-01T03:41:46.499Z,99.90
2019-06-01T03:44:15.425Z,99.90
2019-06-01T03:46:44.296Z,99.90
2019-06-01T03:49:13.355Z,99.90
2019-06-01T03:51:42.164Z,99.90
2019-06-01T03:54:10.949Z,99.90
2019-06-01T03:56:40.228Z,99.90
2019-06-01T03:59:09.445Z,99.90
2019-06-01T04:01:38.749Z,99.90
2019-06-01T04:04:07.538Z,99.90
2019-06-01T04:06:36.419Z,99.90
2019-06-01T04:09:07.739Z,99.90
2019-06-01T04:11:37.008Z,99.90
2019-06-01T04:14:07.739Z,99.90
2019-06-01T04:16:36.682Z,99.90
2019-06-01T04:19:06.017Z,99.90
2019-06-01T04:21:35.089Z,99.90
2019-06-01T04:24:04.075Z,99.90
2019-06-01T04:26:32.984Z,99.90
2019-06-01T04:29:02.320Z,99.90
2019-06-01T04:31:31.330Z,99.90
2019-06-01T04:34:00.789Z,99.90
2019-06-01T04:36:29.612Z,99.90
2019-06-01T04:38:58.877Z,99.90
2019-06-01T04:41:27.682Z,99.90
2019-06-01T04:43:56.489Z,99.90
2019-06-01T04:46:25.682Z,99.90
2019-06-01T04:48:54.542Z,99.90
2019-06-01T04:51:23.757Z,99.90
2019-06-01T04:53:52.553Z,99.90
2019-06-01T04:56:21.388Z,99.90
2019-06-01T04:58:50.181Z,99.90
2019-06-01T05:01:18.976Z,99.90
2019-06-01T05:03:48.096Z,99.90
2019-06-01T05:06:17.475Z,99.90
2019-06-01T05:08:46.275Z,99.90
2019-06-01T05:11:15.687Z,99.90
2019-06-01T05:13:44.656Z,99.90
2019-06-01T05:16:14.844Z,99.90
2019-06-01T05:18:44.481Z,99.90
2019-06-01T05:21:15.165Z,99.90
2019-06-01T05:23:44.244Z,99.90
2019-06-01T05:26:13.320Z,99.90
2019-06-01T05:28:42.197Z,99.90
2019-06-01T05:31:16.687Z,99.90
2019-06-01T05:33:41.663Z,99.90
2019-06-01T05:36:11.789Z,99.90
2019-06-01T05:38:41.029Z,99.90
2019-06-01T05:41:11.281Z,99.90
2019-06-01T05:43:40.488Z,99.90
2019-06-01T05:46:09.876Z,99.90
2019-06-01T05:48:39.441Z,99.90
2019-06-01T05:51:08.475Z,99.90
2019-06-01T05:53:37.348Z,99.90
2019-06-01T05:56:06.133Z,99.90
2019-06-01T05:58:35.239Z,99.90
2019-06-01T06:01:04.129Z,99.90
2019-06-01T06:03:40.468Z,99.90
2019-06-01T06:06:04.100Z,99.90
2019-06-01T06:08:32.904Z,99.90
2019-06-01T06:11:01.705Z,99.90
2019-06-01T06:13:30.668Z,99.90
2019-06-01T06:15:59.472Z,99.90
2019-06-01T06:18:28.499Z,99.90
2019-06-01T06:20:57.365Z,99.90
2019-06-01T06:23:26.216Z,99.90
2019-06-01T06:25:54.991Z,99.90
2019-06-01T06:28:26.527Z,99.90
2019-06-01T06:30:54.712Z,99.90
2019-06-01T06:33:23.719Z,99.90
2019-06-01T06:35:52.836Z,99.90
2019-06-01T06:38:21.989Z,99.90
2019-06-01T06:40:51.304Z,99.90
2019-06-01T06:43:30.609Z,99.90
2019-06-01T06:45:50.635Z,99.90
2019-06-01T06:48:19.542Z,99.90
2019-06-01T06:50:48.534Z,99.90
2019-06-01T06:53:28.517Z,99.90
2019-06-01T06:56:07.207Z,99.90
2019-06-01T06:58:36.062Z,99.90
2019-06-01T07:01:05.144Z,99.90
2019-06-01T07:03:33.988Z,99.90
2019-06-01T07:06:02.857Z,99.90
2019-06-01T07:08:32.054Z,99.90
2019-06-01T07:11:01.543Z,99.90
2019-06-01T07:13:31.542Z,99.90
2019-06-01T07:16:03.778Z,99.90
2019-06-01T07:18:31.906Z,99.90
2019-06-01T07:21:00.960Z,99.90
2019-06-01T07:23:29.888Z,99.90
2019-06-01T07:25:58.721Z,99.90
2019-06-01T07:28:28.343Z,99.90
2019-06-01T07:30:57.292Z,99.90
2019-06-01T07:33:26.535Z,99.90
2019-06-01T07:35:55.696Z,99.90
2019-06-01T07:38:24.706Z,99.90
2019-06-01T07:40:53.611Z,99.90
2019-06-01T07:43:22.852Z,99.90
2019-06-01T07:45:51.991Z,99.90
2019-06-01T07:48:20.981Z,99.90
2019-06-01T07:50:49.978Z,99.90
2019-06-01T07:53:18.896Z,99.90
2019-06-01T07:55:48.148Z,99.90
2019-06-01T07:58:16.989Z,99.90
2019-06-01T08:00:45.855Z,99.90
2019-06-01T08:03:14.731Z,99.90
2019-06-01T08:05:43.684Z,99.90
2019-06-01T08:08:12.575Z,99.90
2019-06-01T08:10:41.389Z,99.90
2019-06-01T08:13:10.180Z,99.90
2019-06-01T08:15:39.288Z,99.90
2019-06-01T08:18:08.241Z,99.90
2019-06-01T08:20:37.028Z,99.90
2019-06-01T08:23:05.874Z,99.90
2019-06-01T08:25:34.901Z,99.90
2019-06-01T08:28:03.975Z,99.90
2019-06-01T08:30:32.802Z,99.90
2019-06-01T08:33:01.826Z,99.90
2019-06-01T08:35:31.174Z,99.90
2019-06-01T08:38:00.156Z,99.90
2019-06-01T08:40:29.511Z,99.90
2019-06-01T08:42:58.537Z,99.90
2019-06-01T08:45:27.683Z,99.90
2019-06-01T08:47:57.348Z,99.90
2019-06-01T08:50:26.221Z,99.90
2019-06-01T08:52:55.019Z,99.90
2019-06-01T08:55:24.082Z,99.90
2019-06-01T08:57:52.983Z,99.90
2019-06-01T09:00:22.307Z,99.90
2019-06-01T09:02:51.190Z,99.90
2019-06-01T09:05:24.466Z,99.90
2019-06-01T09:07:50.725Z,99.90
2019-06-01T09:10:19.650Z,99.90
2019-06-01T09:12:48.744Z,99.90
2019-06-01T09:15:17.714Z,99.90
2019-06-01T09:17:46.937Z,99.90
2019-06-01T09:20:16.149Z,99.90
2019-06-01T09:22:48.041Z,99.90
2019-06-01T09:25:16.274Z,99.90
2019-06-01T09:27:45.192Z,99.90
2019-06-01T09:30:14.425Z,99.90
2019-06-01T09:32:44.084Z,99.90
2019-06-01T09:35:13.204Z,99.90
2019-06-01T09:37:45.634Z,99.90
2019-06-01T09:40:14.733Z,99.90
2019-06-01T09:42:43.778Z,99.90
2019-06-01T09:45:12.837Z,99.90
2019-06-01T09:47:41.626Z,99.90
2019-06-01T09:50:11.046Z,99.90
2019-06-01T09:52:39.958Z,99.90
2019-06-01T09:55:09.225Z,99.90
2019-06-01T09:57:38.347Z,99.90
2019-06-01T10:00:08.652Z,99.90
2019-06-01T10:02:38.342Z,99.90
2019-06-01T10:05:07.629Z,99.90
2019-06-01T10:07:37.011Z,99.90
2019-06-01T10:10:06.416Z,99.90
2019-06-01T10:12:36.052Z,99.90
2019-06-01T10:15:06.033Z,99.90
2019-06-01T10:17:35.240Z,99.90
2019-06-01T10:20:05.391Z,99.90
2019-06-01T10:22:35.117Z,99.90
2019-06-01T10:25:05.054Z,99.90
2019-06-01T10:27:34.508Z,99.90
2019-06-01T10:30:03.707Z,99.90
2019-06-01T10:32:34.122Z,99.90
2019-06-01T10:35:03.201Z,99.90
2019-06-01T10:37:33.291Z,99.90
2019-06-01T10:40:02.321Z,99.90
2019-06-01T10:42:32.696Z,99.90
2019-06-01T10:45:01.644Z,99.90
2019-06-01T10:47:31.820Z,99.90
2019-06-01T10:50:00.880Z,99.90
2019-06-01T10:52:29.913Z,99.90
2019-06-01T10:54:59.004Z,99.90
2019-06-01T10:57:28.151Z,99.90
2019-06-01T10:59:57.250Z,99.90
2019-06-01T11:02:26.307Z,99.90
2019-06-01T11:04:55.406Z,99.90
2019-06-01T11:07:24.183Z,99.90
2019-06-01T11:09:53.071Z,99.90
2019-06-01T11:12:22.617Z,99.90
2019-06-01T11:14:51.404Z,99.90
2019-06-01T11:17:20.178Z,99.90
2019-06-01T11:19:49.371Z,99.90
2019-06-01T11:22:18.486Z,99.90
2019-06-01T11:24:47.701Z,99.90
2019-06-01T11:27:16.483Z,99.90
2019-06-01T11:29:51.256Z,99.90
2019-06-01T11:32:15.774Z,99.90
2019-06-01T11:34:44.595Z,99.90
2019-06-01T11:37:15.520Z,99.90
2019-06-01T11:39:44.883Z,99.90
2019-06-01T11:42:14.140Z,99.90
2019-06-01T11:44:44.809Z,99.90
2019-06-01T11:47:14.228Z,99.90
2019-06-01T11:49:45.030Z,99.90
2019-06-01T11:52:14.297Z,99.90
2019-06-01T11:54:43.308Z,99.90
2019-06-01T11:57:12.423Z,99.90
2019-06-01T11:59:41.612Z,99.90
2019-06-01T12:02:10.520Z,99.90
2019-06-01T12:04:39.856Z,99.40
2019-06-01T12:07:17.543Z,99.10
2019-06-01T12:09:58.578Z,98.90
2019-06-01T12:12:27.762Z,98.30
2019-06-01T12:14:56.848Z,98.60
2019-06-01T12:17:26.146Z,99.10
2019-06-01T12:19:55.243Z,99.10
2019-06-01T12:22:24.132Z,99.20
2019-06-01T12:24:52.942Z,99.90
2019-06-01T12:27:21.792Z,98.30
2019-06-01T12:29:52.675Z,99.20
2019-06-01T12:32:21.203Z,99.40
2019-06-01T12:34:50.023Z,99.10
2019-06-01T12:37:35.886Z,99.10
2019-06-01T12:39:52.134Z,98.80
2019-06-01T12:42:20.032Z,99.40
2019-06-01T12:44:48.830Z,99.90
2019-06-01T12:47:17.699Z,99.00
2019-06-01T12:49:46.578Z,98.90
2019-06-01T12:52:15.389Z,99.00
2019-06-01T12:54:44.781Z,99.10
2019-06-01T12:57:13.658Z,98.60
2019-06-01T12:59:43.283Z,98.00
2019-06-01T13:02:12.252Z,98.20
2019-06-01T13:04:42.831Z,98.70
2019-06-01T13:07:12.096Z,98.80
2019-06-01T13:09:41.984Z,97.90
2019-06-01T13:12:11.306Z,98.20
2019-06-01T13:14:41.132Z,98.20
2019-06-01T13:17:10.176Z,97.60
2019-06-01T13:19:39.313Z,98.80
2019-06-01T13:22:08.198Z,97.50
2019-06-01T13:24:37.175Z,97.50
2019-06-01T13:27:06.203Z,97.40
2019-06-01T13:29:35.383Z,98.20
2019-06-01T13:32:04.364Z,98.20
2019-06-01T13:34:34.379Z,98.30
2019-06-01T13:37:03.538Z,97.90
2019-06-01T13:39:32.848Z,97.40
2019-06-01T13:42:01.734Z,97.80
2019-06-01T13:44:30.768Z,97.30
2019-06-01T13:47:00.090Z,96.90
2019-06-01T13:49:29.476Z,96.50
2019-06-01T13:51:58.310Z,96.10
2019-06-01T13:54:27.296Z,97.30
2019-06-01T13:56:56.074Z,97.20
2019-06-01T13:59:24.916Z,97.60
2019-06-01T14:01:55.364Z,97.90
2019-06-01T14:04:24.251Z,98.20
2019-06-01T14:06:53.217Z,97.50
2019-06-01T14:09:22.361Z,96.60
2019-06-01T14:11:51.439Z,96.50
2019-06-01T14:14:20.395Z,96.80
2019-06-01T14:16:49.628Z,96.70
2019-06-01T14:19:19.192Z,96.50
2019-06-01T14:21:47.976Z,96.60
2019-06-01T14:24:16.882Z,96.80
2019-06-01T14:26:46.075Z,96.60
2019-06-01T14:29:15.362Z,97.30
2019-06-01T14:31:44.183Z,97.40
2019-06-01T14:34:12.967Z,97.30
2019-06-01T14:36:41.756Z,96.80
2019-06-01T14:39:10.544Z,97.10
2019-06-01T14:41:39.606Z,96.70
2019-06-01T14:44:08.411Z,97.30
2019-06-01T14:46:52.969Z,97.50
2019-06-01T14:49:07.823Z,96.80
2019-06-01T14:51:36.695Z,97.00
2019-06-01T14:54:05.755Z,97.00
2019-06-01T14:56:34.912Z,96.60
2019-06-01T14:59:03.920Z,97.30
2019-06-01T15:01:33.317Z,97.60
2019-06-01T15:04:02.614Z,96.90
2019-06-01T15:06:31.409Z,97.60
2019-06-01T15:09:15.311Z,97.30
2019-06-01T15:11:30.858Z,97.40
2019-06-01T15:13:59.673Z,98.00
2019-06-01T15:16:28.479Z,97.20
2019-06-01T15:18:57.705Z,97.60
2019-06-01T15:21:26.594Z,96.90
2019-06-01T15:23:56.682Z,97.20
2019-06-01T15:26:25.727Z,97.40
2019-06-01T15:28:54.940Z,97.10
2019-06-01T15:31:23.786Z,96.90
2019-06-01T15:33:53.231Z,96.70
2019-06-01T15:36:22.148Z,96.50
2019-06-01T15:38:51.640Z,96.30
2019-06-01T15:41:21.338Z,97.00
2019-06-01T15:43:50.902Z,97.20
2019-06-01T15:46:20.132Z,96.70
2019-06-01T15:48:49.319Z,97.00
2019-06-01T15:51:18.186Z,96.70
2019-06-01T15:53:47.089Z,96.60
2019-06-01T15:56:16.003Z,96.40
2019-06-01T15:58:52.932Z,96.60
2019-06-01T16:01:15.687Z,95.70
2019-06-01T16:03:44.570Z,95.80
2019-06-01T16:06:13.339Z,95.60
2019-06-01T16:08:42.447Z,95.80
2019-06-01T16:11:11.363Z,95.90
2019-06-01T16:13:40.517Z,95.20
2019-06-01T16:16:09.306Z,95.60
2019-06-01T16:18:38.121Z,96.20
2019-06-01T16:21:07.283Z,95.50
2019-06-01T16:23:49.439Z,95.70
2019-06-01T16:26:15.900Z,95.90
2019-06-01T16:28:37.394Z,95.80
2019-06-01T16:31:06.236Z,95.90
2019-06-01T16:33:35.115Z,96.20
2019-06-01T16:36:05.490Z,95.50
2019-06-01T16:38:34.891Z,95.50
2019-06-01T16:41:03.863Z,96.60
2019-06-01T16:43:33.015Z,97.00
2019-06-01T16:46:02.177Z,96.50
2019-06-01T16:48:31.452Z,96.80
2019-06-01T16:51:01.642Z,96.90
2019-06-01T16:53:30.891Z,97.20
2019-06-01T16:55:59.882Z,97.60
2019-06-01T16:58:28.879Z,98.10
2019-06-01T17:00:58.546Z,97.20
2019-06-01T17:03:27.409Z,97.90
2019-06-01T17:05:56.699Z,97.90
2019-06-01T17:08:25.655Z,98.00
2019-06-01T17:10:54.462Z,98.50
2019-06-01T17:13:23.649Z,98.10
2019-06-01T17:15:52.748Z,97.40
2019-06-01T17:18:21.628Z,97.90
2019-06-01T17:20:51.733Z,97.30
2019-06-01T17:23:26.958Z,97.40
2019-06-01T17:25:51.523Z,97.10
2019-06-01T17:28:20.439Z,97.80
2019-06-01T17:30:49.367Z,97.80
2019-06-01T17:33:18.480Z,97.60
2019-06-01T17:35:47.643Z,97.50
2019-06-01T17:38:16.768Z,98.00
2019-06-01T17:40:45.622Z,98.00
2019-06-01T17:43:14.716Z,97.40
2019-06-01T17:45:43.654Z,97.60
2019-06-01T17:48:25.158Z,98.30
2019-06-01T17:50:43.528Z,98.40
2019-06-01T17:53:13.072Z,98.60
2019-06-01T17:55:42.803Z,98.10
2019-06-01T17:58:12.633Z,98.40
2019-06-01T18:00:42.423Z,97.70
2019-06-01T18:03:12.058Z,97.90
2019-06-01T18:05:41.294Z,98.40
2019-06-01T18:08:10.455Z,97.70
2019-06-01T18:10:53.166Z,97.90
2019-06-01T18:13:12.808Z,98.00
2019-06-01T18:15:41.948Z,98.20
2019-06-01T18:18:12.326Z,98.40
2019-06-01T18:20:41.786Z,98.30
2019-06-01T18:23:11.418Z,98.00
2019-06-01T18:25:40.976Z,98.20
2019-06-01T18:28:16.124Z,98.40
2019-06-01T18:30:41.106Z,98.70
2019-06-01T18:33:11.199Z,98.90
2019-06-01T18:35:40.536Z,98.80
2019-06-01T18:38:09.871Z,98.90
2019-06-01T18:40:38.989Z,99.00
2019-06-01T18:43:12.080Z,99.00
2019-06-01T18:45:41.194Z,99.10
2019-06-01T18:48:10.391Z,99.40
2019-06-01T18:50:39.397Z,99.50
2019-06-01T18:53:08.558Z,99.40
2019-06-01T18:55:37.472Z,99.90
2019-06-01T18:58:06.618Z,99.90
2019-06-01T19:00:39.601Z,99.90
2019-06-01T19:03:07.435Z,99.90
2019-06-01T19:05:37.479Z,99.90
2019-06-01T19:08:07.212Z,99.90
2019-06-01T19:10:36.345Z,99.90
2019-06-01T19:13:06.067Z,99.90
2019-06-01T19:15:34.904Z,99.90
2019-06-01T19:18:03.964Z,99.90
2019-06-01T19:20:33.437Z,99.90
2019-06-01T19:23:02.506Z,99.90
2019-06-01T19:25:31.287Z,99.90
2019-06-01T19:28:00.487Z,99.90
2019-06-01T19:30:37.997Z,99.90
2019-06-01T19:33:10.936Z,99.90
2019-06-01T19:35:40.110Z,99.90
2019-06-01T19:38:09.206Z,99.90
2019-06-01T19:40:39.595Z,99.90
2019-06-01T19:43:09.907Z,99.90
2019-06-01T19:45:38.990Z,99.90
2019-06-01T19:48:09.905Z,99.90
2019-06-01T19:50:39.462Z,99.90
2019-06-01T19:53:08.772Z,99.90
2019-06-01T19:55:37.810Z,99.90
2019-06-01T19:58:06.803Z,99.90
2019-06-01T20:00:36.155Z,99.90
2019-06-01T20:03:05.838Z,99.90
2019-06-01T20:05:35.066Z,99.90
2019-06-01T20:08:04.064Z,99.90
2019-06-01T20:10:33.285Z,99.90
2019-06-01T20:13:02.603Z,99.90
2019-06-01T20:15:31.453Z,99.90
2019-06-01T20:18:00.561Z,99.90
2019-06-01T20:20:29.593Z,99.90
2019-06-01T20:22:58.731Z,99.90
2019-06-01T20:25:27.662Z,99.90
2019-06-01T20:27:56.974Z,99.90
2019-06-01T20:30:25.913Z,99.90
2019-06-01T20:32:55.418Z,99.90
2019-06-01T20:35:24.232Z,99.90
2019-06-01T20:37:53.354Z,99.90
2019-06-01T20:40:22.525Z,99.90
2019-06-01T20:42:51.844Z,99.90
2019-06-01T20:45:21.058Z,99.90
2019-06-01T20:47:49.924Z,99.90
2019-06-01T20:50:18.864Z,99.90
2019-06-01T20:52:47.658Z,99.90
2019-06-01T20:55:19.171Z,99.90
2019-06-01T20:57:48.337Z,99.90
2019-06-01T21:00:18.019Z,99.90
2019-06-01T21:02:47.312Z,99.90
2019-06-01T21:05:16.293Z,99.90
2019-06-01T21:07:45.120Z,99.90
2019-06-01T21:10:16.043Z,99.90
2019-06-01T21:12:46.064Z,99.90
2019-06-01T21:15:17.133Z,99.90
2019-06-01T21:17:49.771Z,99.90
2019-06-01T21:20:24.960Z,99.90
2019-06-01T21:22:49.263Z,99.90
2019-06-01T21:25:18.843Z,99.90
2019-06-01T21:27:48.175Z,99.90
2019-06-01T21:30:18.800Z,99.90
2019-06-01T21:32:48.494Z,99.90
2019-06-01T21:35:19.201Z,99.90
2019-06-01T21:37:48.553Z,99.90
2019-06-01T21:40:17.686Z,99.90
2019-06-01T21:43:01.111Z,99.90
2019-06-01T21:45:19.498Z,99.90
2019-06-01T21:47:48.505Z,99.90
2019-06-01T21:50:18.180Z,99.90
2019-06-01T21:52:47.541Z,99.90
2019-06-01T21:55:16.673Z,99.90
2019-06-01T21:57:45.808Z,99.90
2019-06-01T22:00:19.104Z,99.90
2019-06-01T22:02:48.036Z,99.90
2019-06-01T22:05:16.985Z,99.90
2019-06-01T22:07:45.845Z,99.90
2019-06-01T22:10:15.037Z,99.90
2019-06-01T22:12:44.237Z,99.90
2019-06-01T22:15:13.968Z,99.90
2019-06-01T22:17:42.751Z,99.90
2019-06-01T22:20:12.177Z,99.90
2019-06-01T22:22:41.245Z,99.90
2019-06-01T22:25:10.411Z,99.90
2019-06-01T22:27:39.803Z,99.90
2019-06-01T22:30:09.417Z,99.90
2019-06-01T22:32:38.542Z,99.90
2019-06-01T22:35:08.054Z,99.90
2019-06-01T22:37:37.251Z,99.90
2019-06-01T22:40:06.858Z,99.90
2019-06-01T22:42:35.720Z,99.90
2019-06-01T22:45:05.774Z,99.90
2019-06-01T22:47:34.591Z,99.90
2019-06-01T22:50:03.696Z,99.90
2019-06-01T22:52:32.529Z,99.90
2019-06-01T22:55:01.402Z,99.90
2019-06-01T22:57:30.177Z,99.90
2019-06-01T22:59:58.965Z,99.90
2019-06-01T23:02:27.912Z,99.90
2019-06-01T23:04:57.115Z,99.90
2019-06-01T23:07:27.194Z,99.90
2019-06-01T23:09:56.153Z,99.90
2019-06-01T23:12:25.490Z,99.90
2019-06-01T23:14:54.813Z,99.90
2019-06-01T23:17:23.868Z,99.90
2019-06-01T23:19:52.745Z,99.90
2019-06-01T23:22:21.775Z,99.90
2019-06-01T23:24:50.757Z,99.90
2019-06-01T23:27:19.639Z,99.90
2019-06-01T23:29:48.772Z,99.90
2019-06-01T23:32:22.383Z,99.90
2019-06-01T23:34:51.574Z,99.90
2019-06-01T23:37:20.770Z,99.90
2019-06-01T23:39:49.670Z,99.90
2019-06-01T23:42:18.913Z,99.90
2019-06-01T23:44:48.061Z,99.90
2019-06-01T23:47:16.892Z,99.90
2019-06-01T23:49:45.790Z,99.90
2019-06-01T23:52:14.576Z,99.90
2019-06-01T23:54:43.402Z,99.90
2019-06-01T23:57:12.191Z,99.90
2019-06-01T23:59:40.997Z,99.90
